sensor_id;sensor_type;location;lat;lon;timestamp;pressure;altitude;pressure_sealevel;temperature;humidity
61674;BME280;47573;43.832;5.974;2022-10-16T00:03:12;95503.38;;;25.65;61.06
61674;BME280;47573;43.832;5.974;2022-10-16T00:08:12;95499.56;;;25.66;61.14
61674;BME280;47573;43.832;5.974;2022-10-16T00:13:13;95496.25;;;25.64;61.06
61674;BME280;47573;43.832;5.974;2022-10-16T00:18:15;95497.25;;;25.58;61.25
61674;BME280;47573;43.832;5.974;2022-10-16T00:23:15;95497.25;;;25.58;61.17
61674;BME280;47573;43.832;5.974;2022-10-16T00:28:16;95501.09;;;25.57;61.18
61674;BME280;47573;43.832;5.974;2022-10-16T00:33:19;95518.50;;;25.50;61.45
61674;BME280;47573;43.832;5.974;2022-10-16T00:38:19;95515.19;;;25.48;61.51
61674;BME280;47573;43.832;5.974;2022-10-16T00:43:35;95515.03;;;25.38;61.48
61674;BME280;47573;43.832;5.974;2022-10-16T00:48:37;95521.09;;;25.40;61.55
61674;BME280;47573;43.832;5.974;2022-10-16T00:53:38;95518.84;;;25.37;61.52
61674;BME280;47573;43.832;5.974;2022-10-16T00:58:38;95519.41;;;25.39;61.46
61674;BME280;47573;43.832;5.974;2022-10-16T01:03:40;95528.13;;;25.36;61.50
61674;BME280;47573;43.832;5.974;2022-10-16T01:08:47;95527.78;;;25.33;61.50
61674;BME280;47573;43.832;5.974;2022-10-16T01:13:53;95532.94;;;25.29;61.60
61674;BME280;47573;43.832;5.974;2022-10-16T01:19:01;95530.47;;;25.28;61.70
61674;BME280;47573;43.832;5.974;2022-10-16T01:24:11;95542.25;;;25.28;61.88
61674;BME280;47573;43.832;5.974;2022-10-16T01:29:17;95533.44;;;25.26;61.39
61674;BME280;47573;43.832;5.974;2022-10-16T01:34:22;95523.69;;;25.30;61.56
61674;BME280;47573;43.832;5.974;2022-10-16T01:39:28;95532.94;;;25.29;61.36
61674;BME280;47573;43.832;5.974;2022-10-16T01:44:33;95531.31;;;25.28;61.29
61674;BME280;47573;43.832;5.974;2022-10-16T01:49:36;95524.19;;;25.27;61.31
61674;BME280;47573;43.832;5.974;2022-10-16T01:54:41;95526.34;;;25.25;61.47
61674;BME280;47573;43.832;5.974;2022-10-16T01:59:46;95535.59;;;25.24;61.47
61674;BME280;47573;43.832;5.974;2022-10-16T02:04:49;95524.09;;;25.22;61.56
61674;BME280;47573;43.832;5.974;2022-10-16T02:09:54;95523.03;;;25.23;61.34
61674;BME280;47573;43.832;5.974;2022-10-16T02:14:56;95526.81;;;25.22;61.34
61674;BME280;47573;43.832;5.974;2022-10-16T02:19:58;95513.16;;;25.22;61.32
61674;BME280;47573;43.832;5.974;2022-10-16T02:25:03;95527.34;;;25.19;61.53
61674;BME280;47573;43.832;5.974;2022-10-16T02:30:10;95526.50;;;25.19;61.45
61674;BME280;47573;43.832;5.974;2022-10-16T02:35:13;95529.50;;;25.17;61.46
61674;BME280;47573;43.832;5.974;2022-10-16T02:40:15;95524.88;;;25.18;61.33
61674;BME280;47573;43.832;5.974;2022-10-16T02:45:17;95525.38;;;25.15;61.43
61674;BME280;47573;43.832;5.974;2022-10-16T02:50:18;95523.47;;;25.15;61.41
61674;BME280;47573;43.832;5.974;2022-10-16T02:55:18;95520.72;;;25.15;61.63
61674;BME280;47573;43.832;5.974;2022-10-16T03:00:20;95527.22;;;25.09;61.48
61674;BME280;47573;43.832;5.974;2022-10-16T03:05:21;95524.97;;;25.06;61.72
61674;BME280;47573;43.832;5.974;2022-10-16T03:10:21;95520.03;;;25.03;61.73
61674;BME280;47573;43.832;5.974;2022-10-16T03:15:23;95524.38;;;25.04;61.68
61674;BME280;47573;43.832;5.974;2022-10-16T03:20:24;95530.38;;;25.01;61.70
61674;BME280;47573;43.832;5.974;2022-10-16T03:25:24;95535.25;;;24.99;61.79
61674;BME280;47573;43.832;5.974;2022-10-16T03:30:26;95542.09;;;25.02;61.37
61674;BME280;47573;43.832;5.974;2022-10-16T03:35:27;95536.63;;;25.02;61.41
61674;BME280;47573;43.832;5.974;2022-10-16T03:40:27;95540.38;;;24.96;61.58
61674;BME280;47573;43.832;5.974;2022-10-16T03:45:29;95542.63;;;24.99;61.55
61674;BME280;47573;43.832;5.974;2022-10-16T03:50:29;95536.31;;;24.98;61.65
61674;BME280;47573;43.832;5.974;2022-10-16T03:55:30;95541.13;;;24.91;62.03
61674;BME280;47573;43.832;5.974;2022-10-16T04:00:32;95548.25;;;24.92;61.89
61674;BME280;47573;43.832;5.974;2022-10-16T04:05:33;95553.19;;;24.95;61.73
61674;BME280;47573;43.832;5.974;2022-10-16T04:10:33;95557.03;;;24.94;61.59
61674;BME280;47573;43.832;5.974;2022-10-16T04:15:35;95554.03;;;24.96;61.63
61674;BME280;47573;43.832;5.974;2022-10-16T04:20:35;95562.97;;;24.91;61.80
61674;BME280;47573;43.832;5.974;2022-10-16T04:25:36;95569.78;;;24.89;62.14
61674;BME280;47573;43.832;5.974;2022-10-16T04:30:38;95575.72;;;24.86;61.97
61674;BME280;47573;43.832;5.974;2022-10-16T04:35:39;95563.06;;;24.96;61.54
61674;BME280;47573;43.832;5.974;2022-10-16T04:40:41;95553.19;;;24.95;61.25
61674;BME280;47573;43.832;5.974;2022-10-16T04:45:43;95563.81;;;24.92;61.35
61674;BME280;47573;43.832;5.974;2022-10-16T04:50:43;95560.50;;;24.90;61.75
61674;BME280;47573;43.832;5.974;2022-10-16T04:55:44;95555.88;;;24.90;61.71
61674;BME280;47573;43.832;5.974;2022-10-16T05:00:46;95551.97;;;24.86;61.39
61674;BME280;47573;43.832;5.974;2022-10-16T05:05:46;95571.09;;;24.86;61.46
61674;BME280;47573;43.832;5.974;2022-10-16T05:10:47;95572.41;;;24.84;61.50
61674;BME280;47573;43.832;5.974;2022-10-16T05:15:49;95571.59;;;24.83;61.48
61674;BME280;47573;43.832;5.974;2022-10-16T05:20:49;95586.81;;;24.79;61.45
61674;BME280;47573;43.832;5.974;2022-10-16T05:25:53;95590.13;;;24.81;61.73
61674;BME280;47573;43.832;5.974;2022-10-16T05:30:56;95597.50;;;24.81;61.53
61674;BME280;47573;43.832;5.974;2022-10-16T05:35:56;95598.91;;;24.83;61.55
61674;BME280;47573;43.832;5.974;2022-10-16T05:40:57;95602.38;;;24.79;61.31
61674;BME280;47573;43.832;5.974;2022-10-16T05:46:02;95599.88;;;24.77;61.76
61674;BME280;47573;43.832;5.974;2022-10-16T05:51:05;95611.66;;;24.78;61.44
61674;BME280;47573;43.832;5.974;2022-10-16T05:56:07;95626.13;;;24.78;61.67
61674;BME280;47573;43.832;5.974;2022-10-16T06:01:12;95623.06;;;24.74;61.58
61674;BME280;47573;43.832;5.974;2022-10-16T06:06:14;95633.16;;;24.74;61.39
61674;BME280;47573;43.832;5.974;2022-10-16T06:11:18;95630.31;;;24.69;61.86
61674;BME280;47573;43.832;5.974;2022-10-16T06:16:20;95637.91;;;24.67;61.83
61674;BME280;47573;43.832;5.974;2022-10-16T06:21:22;95644.13;;;24.62;61.94
61674;BME280;47573;43.832;5.974;2022-10-16T06:26:24;95643.19;;;24.57;61.76
61674;BME280;47573;43.832;5.974;2022-10-16T06:31:27;95648.47;;;24.47;62.31
61674;BME280;47573;43.832;5.974;2022-10-16T06:36:28;95652.63;;;24.49;62.28
61674;BME280;47573;43.832;5.974;2022-10-16T06:41:29;95670.31;;;24.47;61.98
61674;BME280;47573;43.832;5.974;2022-10-16T06:46:30;95676.81;;;24.57;61.90
61674;BME280;47573;43.832;5.974;2022-10-16T06:51:31;95679.13;;;24.65;61.50
61674;BME280;47573;43.832;5.974;2022-10-16T06:56:32;95680.59;;;24.56;61.70
61674;BME280;47573;43.832;5.974;2022-10-16T07:01:34;95694.50;;;24.55;61.98
61674;BME280;47573;43.832;5.974;2022-10-16T07:06:35;95701.59;;;24.56;61.46
61674;BME280;47573;43.832;5.974;2022-10-16T07:11:36;95703.16;;;24.52;61.99
61674;BME280;47573;43.832;5.974;2022-10-16T07:16:38;95705.88;;;24.52;61.70
61674;BME280;47573;43.832;5.974;2022-10-16T07:21:39;95712.19;;;24.52;61.58
61674;BME280;47573;43.832;5.974;2022-10-16T07:26:40;95716.22;;;24.50;61.56
61674;BME280;47573;43.832;5.974;2022-10-16T07:31:42;95729.66;;;24.51;61.52
61674;BME280;47573;43.832;5.974;2022-10-16T07:36:43;95735.91;;;24.52;61.56
61674;BME280;47573;43.832;5.974;2022-10-16T07:41:44;95739.47;;;24.52;61.43
61674;BME280;47573;43.832;5.974;2022-10-16T07:46:46;95742.47;;;24.51;61.77
61674;BME280;47573;43.832;5.974;2022-10-16T07:51:46;95745.66;;;24.48;61.72
61674;BME280;47573;43.832;5.974;2022-10-16T07:56:47;95752.22;;;24.47;61.60
61674;BME280;47573;43.832;5.974;2022-10-16T08:01:49;95765.59;;;24.48;61.62
61674;BME280;47573;43.832;5.974;2022-10-16T08:06:50;95761.91;;;24.54;61.39
61674;BME280;47573;43.832;5.974;2022-10-16T08:11:50;95766.44;;;24.49;61.92
61674;BME280;47573;43.832;5.974;2022-10-16T08:16:52;95777.94;;;24.51;61.45
61674;BME280;47573;43.832;5.974;2022-10-16T08:21:53;95781.16;;;24.48;61.64
61674;BME280;47573;43.832;5.974;2022-10-16T08:26:53;95789.94;;;24.50;61.86
61674;BME280;47573;43.832;5.974;2022-10-16T08:31:55;95790.19;;;24.48;60.81
61674;BME280;47573;43.832;5.974;2022-10-16T08:36:56;95787.69;;;24.47;58.46
61674;BME280;47573;43.832;5.974;2022-10-16T08:42:05;95786.41;;;24.38;57.88
61674;BME280;47573;43.832;5.974;2022-10-16T08:47:13;95791.28;;;24.36;55.82
61674;BME280;47573;43.832;5.974;2022-10-16T08:52:17;95793.28;;;24.29;56.55
61674;BME280;47573;43.832;5.974;2022-10-16T08:57:20;95799.59;;;24.29;56.03
61674;BME280;47573;43.832;5.974;2022-10-16T09:02:29;95792.91;;;24.48;56.91
61674;BME280;47573;43.832;5.974;2022-10-16T09:07:35;95806.44;;;24.55;59.19
61674;BME280;47573;43.832;5.974;2022-10-16T09:12:50;95825.75;;;24.65;59.49
61674;BME280;47573;43.832;5.974;2022-10-16T09:17:58;95821.84;;;24.61;59.00
61674;BME280;47573;43.832;5.974;2022-10-16T09:23:12;95835.59;;;24.78;58.22
61674;BME280;47573;43.832;5.974;2022-10-16T09:28:13;95829.66;;;24.69;59.03
61674;BME280;47573;43.832;5.974;2022-10-16T09:33:17;95829.19;;;24.72;58.93
61674;BME280;47573;43.832;5.974;2022-10-16T09:38:24;95829.19;;;24.72;59.12
61674;BME280;47573;43.832;5.974;2022-10-16T09:43:28;95830.59;;;24.74;57.90
61674;BME280;47573;43.832;5.974;2022-10-16T09:48:36;95833.53;;;24.96;56.59
61674;BME280;47573;43.832;5.974;2022-10-16T09:53:40;95833.81;;;25.11;57.32
61674;BME280;47573;43.832;5.974;2022-10-16T09:58:49;95831.50;;;24.92;58.00
61674;BME280;47573;43.832;5.974;2022-10-16T10:03:55;95826.78;;;25.15;57.23
61674;BME280;47573;43.832;5.974;2022-10-16T10:08:59;95824.81;;;25.27;56.79
61674;BME280;47573;43.832;5.974;2022-10-16T10:14:05;95838.09;;;25.35;56.55
61674;BME280;47573;43.832;5.974;2022-10-16T10:19:13;95815.56;;;25.28;57.21
61674;BME280;47573;43.832;5.974;2022-10-16T10:24:15;95808.72;;;25.14;57.90
61674;BME280;47573;43.832;5.974;2022-10-16T10:29:22;95802.94;;;25.11;58.13
61674;BME280;47573;43.832;5.974;2022-10-16T10:34:38;95815.13;;;25.20;58.21
61674;BME280;47573;43.832;5.974;2022-10-16T10:39:46;95809.00;;;25.29;58.11
61674;BME280;47573;43.832;5.974;2022-10-16T10:45:16;95809.75;;;25.25;58.07
61674;BME280;47573;43.832;5.974;2022-10-16T10:50:22;95808.13;;;25.40;57.75
61674;BME280;47573;43.832;5.974;2022-10-16T10:55:31;95807.84;;;25.70;56.69
61674;BME280;47573;43.832;5.974;2022-10-16T11:00:42;95797.88;;;25.97;54.62
61674;BME280;47573;43.832;5.974;2022-10-16T11:05:47;95811.00;;;26.12;54.61
61674;BME280;47573;43.832;5.974;2022-10-16T11:10:53;95811.00;;;26.12;54.14
61674;BME280;47573;43.832;5.974;2022-10-16T11:15:58;95788.09;;;26.01;54.90
61674;BME280;47573;43.832;5.974;2022-10-16T11:21:05;95796.66;;;25.55;56.26
61674;BME280;47573;43.832;5.974;2022-10-16T11:26:13;95797.41;;;25.50;56.63
61674;BME280;47573;43.832;5.974;2022-10-16T11:31:19;95796.56;;;25.50;56.80
61674;BME280;47573;43.832;5.974;2022-10-16T11:36:29;95795.25;;;25.52;56.99
61674;BME280;47573;43.832;5.974;2022-10-16T11:41:35;95804.88;;;25.55;57.08
61674;BME280;47573;43.832;5.974;2022-10-16T11:46:40;95803.34;;;25.47;57.38
61674;BME280;47573;43.832;5.974;2022-10-16T11:51:54;95791.09;;;25.50;57.28
61674;BME280;47573;43.832;5.974;2022-10-16T11:56:59;95792.19;;;25.49;57.30
61674;BME280;47573;43.832;5.974;2022-10-16T12:02:23;95785.63;;;25.50;57.45
61674;BME280;47573;43.832;5.974;2022-10-16T12:07:34;95781.31;;;25.54;57.60
61674;BME280;47573;43.832;5.974;2022-10-16T12:12:38;95780.25;;;25.55;57.69
61674;BME280;47573;43.832;5.974;2022-10-16T12:17:39;95780.47;;;25.53;57.75
61674;BME280;47573;43.832;5.974;2022-10-16T12:22:48;95771.69;;;25.51;57.84
61674;BME280;47573;43.832;5.974;2022-10-16T12:28:17;95775.00;;;25.53;57.65
61674;BME280;47573;43.832;5.974;2022-10-16T12:33:21;95763.06;;;25.60;57.60
61674;BME280;47573;43.832;5.974;2022-10-16T12:38:27;95759.75;;;25.58;57.75
61674;BME280;47573;43.832;5.974;2022-10-16T12:43:37;95749.19;;;25.61;57.43
61674;BME280;47573;43.832;5.974;2022-10-16T12:48:39;95759.28;;;25.61;57.75
61674;BME280;47573;43.832;5.974;2022-10-16T12:53:41;95760.94;;;25.62;57.76
61674;BME280;47573;43.832;5.974;2022-10-16T12:58:51;95752.81;;;25.67;57.57
61674;BME280;47573;43.832;5.974;2022-10-16T13:04:14;95763.75;;;25.67;57.62
61674;BME280;47573;43.832;5.974;2022-10-16T13:09:40;95755.53;;;25.67;57.85
61674;BME280;47573;43.832;5.974;2022-10-16T13:15:14;95756.13;;;25.69;57.67
61674;BME280;47573;43.832;5.974;2022-10-16T13:20:21;95753.47;;;25.74;57.75
61674;BME280;47573;43.832;5.974;2022-10-16T13:25:32;95744.19;;;25.75;57.77
61674;BME280;47573;43.832;5.974;2022-10-16T13:30:39;95742.28;;;25.75;57.71
61674;BME280;47573;43.832;5.974;2022-10-16T13:35:48;95751.31;;;25.76;57.85
61674;BME280;47573;43.832;5.974;2022-10-16T13:40:53;95749.16;;;25.78;57.94
61674;BME280;47573;43.832;5.974;2022-10-16T13:45:59;95759.59;;;25.81;57.77
61674;BME280;47573;43.832;5.974;2022-10-16T13:51:06;95769.72;;;25.80;57.81
61674;BME280;47573;43.832;5.974;2022-10-16T13:56:14;95769.72;;;25.80;57.92
61674;BME280;47573;43.832;5.974;2022-10-16T14:01:17;95766.22;;;25.85;57.82
61674;BME280;47573;43.832;5.974;2022-10-16T14:06:20;95772.19;;;25.82;58.10
61674;BME280;47573;43.832;5.974;2022-10-16T14:11:24;95765.06;;;25.81;57.98
61674;BME280;47573;43.832;5.974;2022-10-16T14:16:27;95774.50;;;25.90;57.76
61674;BME280;47573;43.832;5.974;2022-10-16T14:21:29;95775.00;;;25.87;57.96
61674;BME280;47573;43.832;5.974;2022-10-16T14:26:41;95781.03;;;25.89;57.82
61674;BME280;47573;43.832;5.974;2022-10-16T14:31:41;95770.69;;;25.91;57.94
61674;BME280;47573;43.832;5.974;2022-10-16T14:36:42;95772.34;;;25.92;58.00
61674;BME280;47573;43.832;5.974;2022-10-16T14:41:46;95774.50;;;25.90;58.27
61674;BME280;47573;43.832;5.974;2022-10-16T14:46:47;95768.56;;;25.93;58.10
61674;BME280;47573;43.832;5.974;2022-10-16T14:51:48;95777.72;;;25.87;58.08
61674;BME280;47573;43.832;5.974;2022-10-16T14:56:52;95779.66;;;25.86;58.20
61674;BME280;47573;43.832;5.974;2022-10-16T15:01:53;95783.19;;;25.87;58.41
61674;BME280;47573;43.832;5.974;2022-10-16T15:06:53;95784.88;;;25.88;58.43
61674;BME280;47573;43.832;5.974;2022-10-16T15:11:55;95792.06;;;25.94;58.33
61674;BME280;47573;43.832;5.974;2022-10-16T15:16:56;95790.09;;;25.89;58.35
61674;BME280;47573;43.832;5.974;2022-10-16T15:21:56;95789.78;;;25.86;58.70
61674;BME280;47573;43.832;5.974;2022-10-16T15:26:58;95799.03;;;25.85;58.95
61674;BME280;47573;43.832;5.974;2022-10-16T15:31:59;95802.34;;;25.87;58.82
61674;BME280;47573;43.832;5.974;2022-10-16T15:37:02;95804.50;;;25.85;58.79
61674;BME280;47573;43.832;5.974;2022-10-16T15:42:04;95796.41;;;25.90;58.78
61674;BME280;47573;43.832;5.974;2022-10-16T15:47:05;95805.66;;;25.89;58.91
61674;BME280;47573;43.832;5.974;2022-10-16T15:52:05;95807.03;;;25.86;59.08
61674;BME280;47573;43.832;5.974;2022-10-16T15:57:07;95809.97;;;25.85;59.18
61674;BME280;47573;43.832;5.974;2022-10-16T16:02:08;95812.13;;;25.83;59.05
61674;BME280;47573;43.832;5.974;2022-10-16T16:07:08;95811.34;;;25.82;59.33
61674;BME280;47573;43.832;5.974;2022-10-16T16:12:10;95819.78;;;25.81;59.37
61674;BME280;47573;43.832;5.974;2022-10-16T16:17:11;95821.94;;;25.79;59.38
61674;BME280;47573;43.832;5.974;2022-10-16T16:22:12;95816.44;;;25.79;59.45
61674;BME280;47573;43.832;5.974;2022-10-16T16:27:14;95823.28;;;25.76;59.55
61674;BME280;47573;43.832;5.974;2022-10-16T16:32:14;95820.59;;;25.81;59.55
61674;BME280;47573;43.832;5.974;2022-10-16T16:37:15;95827.50;;;25.84;59.36
61674;BME280;47573;43.832;5.974;2022-10-16T16:42:17;95836.19;;;25.81;59.54
61674;BME280;47573;43.832;5.974;2022-10-16T16:47:17;95834.22;;;25.76;59.72
61674;BME280;47573;43.832;5.974;2022-10-16T16:52:18;95838.13;;;25.80;59.56
61674;BME280;47573;43.832;5.974;2022-10-16T16:57:20;95846.47;;;25.74;60.01
61674;BME280;47573;43.832;5.974;2022-10-16T17:02:21;95847.13;;;25.81;59.88
61674;BME280;47573;43.832;5.974;2022-10-16T17:07:21;95850.84;;;25.75;59.84
61674;BME280;47573;43.832;5.974;2022-10-16T17:12:23;95862.88;;;25.74;59.75
61674;BME280;47573;43.832;5.974;2022-10-16T17:17:24;95883.09;;;25.73;59.89
61674;BME280;47573;43.832;5.974;2022-10-16T17:22:24;95893.72;;;25.86;59.60
61674;BME280;47573;43.832;5.974;2022-10-16T17:27:26;95897.06;;;25.88;59.64
61674;BME280;47573;43.832;5.974;2022-10-16T17:32:26;95904.69;;;25.86;59.87
61674;BME280;47573;43.832;5.974;2022-10-16T17:37:27;95906.88;;;25.72;60.14
61674;BME280;47573;43.832;5.974;2022-10-16T17:42:29;95918.06;;;25.71;60.28
61674;BME280;47573;43.832;5.974;2022-10-16T17:47:29;95924.63;;;25.70;60.23
61674;BME280;47573;43.832;5.974;2022-10-16T17:52:30;95938.66;;;25.73;60.28
61674;BME280;47573;43.832;5.974;2022-10-16T17:57:32;95941.63;;;25.72;60.08
61674;BME280;47573;43.832;5.974;2022-10-16T18:02:32;95947.75;;;25.79;59.73
61674;BME280;47573;43.832;5.974;2022-10-16T18:07:33;95968.47;;;25.75;60.01
61674;BME280;47573;43.832;5.974;2022-10-16T18:12:34;95980.13;;;25.82;59.81
61674;BME280;47573;43.832;5.974;2022-10-16T18:17:35;95966.63;;;25.92;59.51
61674;BME280;47573;43.832;5.974;2022-10-16T18:22:36;95970.53;;;25.96;59.46
61674;BME280;47573;43.832;5.974;2022-10-16T18:27:37;95977.47;;;25.87;59.46
61674;BME280;47573;43.832;5.974;2022-10-16T18:32:38;95982.34;;;25.85;59.34
61674;BME280;47573;43.832;5.974;2022-10-16T18:37:38;95983.63;;;25.94;59.42
61674;BME280;47573;43.832;5.974;2022-10-16T18:42:40;95986.47;;;25.99;59.94
61674;BME280;47573;43.832;5.974;2022-10-16T18:47:41;95979.81;;;25.95;60.66
61674;BME280;47573;43.832;5.974;2022-10-16T18:52:46;95982.09;;;25.70;60.44
61674;BME280;47573;43.832;5.974;2022-10-16T18:57:48;95981.09;;;25.76;60.73
61674;BME280;47573;43.832;5.974;2022-10-16T19:02:48;95984.72;;;25.93;61.51
61674;BME280;47573;43.832;5.974;2022-10-16T19:07:49;95983.44;;;25.84;61.21
61674;BME280;47573;43.832;5.974;2022-10-16T19:12:51;95994.38;;;25.84;61.09
61674;BME280;47573;43.832;5.974;2022-10-16T19:17:51;95993.22;;;25.80;61.19
61674;BME280;47573;43.832;5.974;2022-10-16T19:22:52;95995.03;;;25.91;61.13
61674;BME280;47573;43.832;5.974;2022-10-16T19:27:53;95993.56;;;26.00;61.14
61674;BME280;47573;43.832;5.974;2022-10-16T19:32:54;95988.63;;;25.97;61.16
61674;BME280;47573;43.832;5.974;2022-10-16T19:37:54;95980.47;;;26.02;61.55
61674;BME280;47573;43.832;5.974;2022-10-16T19:42:56;95992.59;;;26.06;61.35
61674;BME280;47573;43.832;5.974;2022-10-16T19:47:57;96002.88;;;25.99;61.46
61674;BME280;47573;43.832;5.974;2022-10-16T19:52:57;96009.34;;;25.93;61.87
61674;BME280;47573;43.832;5.974;2022-10-16T19:57:59;96008.84;;;25.96;61.98
61674;BME280;47573;43.832;5.974;2022-10-16T20:02:59;96003.88;;;25.93;61.83
61674;BME280;47573;43.832;5.974;2022-10-16T20:08:00;96003.50;;;25.89;61.98
61674;BME280;47573;43.832;5.974;2022-10-16T20:13:02;96020.28;;;25.93;62.01
61674;BME280;47573;43.832;5.974;2022-10-16T20:18:02;96017.44;;;25.88;62.19
61674;BME280;47573;43.832;5.974;2022-10-16T20:23:03;96026.72;;;25.87;62.24
61674;BME280;47573;43.832;5.974;2022-10-16T20:28:06;96030.03;;;25.89;61.90
61674;BME280;47573;43.832;5.974;2022-10-16T20:33:07;96032.69;;;25.84;62.10
61674;BME280;47573;43.832;5.974;2022-10-16T20:38:08;96044.09;;;25.81;61.92
61674;BME280;47573;43.832;5.974;2022-10-16T20:43:12;96041.38;;;25.81;62.20
61674;BME280;47573;43.832;5.974;2022-10-16T20:48:13;96037.81;;;25.80;62.06
61674;BME280;47573;43.832;5.974;2022-10-16T20:53:13;96047.41;;;25.83;62.20
61674;BME280;47573;43.832;5.974;2022-10-16T20:58:15;96045.31;;;25.73;62.39
61674;BME280;47573;43.832;5.974;2022-10-16T21:03:16;96051.63;;;25.74;62.40
61674;BME280;47573;43.832;5.974;2022-10-16T21:08:16;96054.84;;;25.71;62.30
61674;BME280;47573;43.832;5.974;2022-10-16T21:13:18;96040.09;;;25.72;62.23
61674;BME280;47573;43.832;5.974;2022-10-16T21:18:19;96053.19;;;25.70;62.39
61674;BME280;47573;43.832;5.974;2022-10-16T21:23:19;96050.22;;;25.71;62.16
61674;BME280;47573;43.832;5.974;2022-10-16T21:28:21;96051.53;;;25.69;62.19
61674;BME280;47573;43.832;5.974;2022-10-16T21:33:22;96049.88;;;25.68;62.36
61674;BME280;47573;43.832;5.974;2022-10-16T21:38:23;96057.50;;;25.66;62.13
61674;BME280;47573;43.832;5.974;2022-10-16T21:43:25;96058.56;;;25.65;62.44
61674;BME280;47573;43.832;5.974;2022-10-16T21:48:26;96056.31;;;25.62;62.33
61674;BME280;47573;43.832;5.974;2022-10-16T21:53:26;96049.88;;;25.68;62.18
61674;BME280;47573;43.832;5.974;2022-10-16T21:58:29;96050.59;;;25.63;62.44
61674;BME280;47573;43.832;5.974;2022-10-16T22:03:30;96044.53;;;25.61;62.19
61674;BME280;47573;43.832;5.974;2022-10-16T22:08:30;96048.00;;;25.57;62.55
61674;BME280;47573;43.832;5.974;2022-10-16T22:13:32;96061.41;;;25.58;62.46
61674;BME280;47573;43.832;5.974;2022-10-16T22:18:34;96058.94;;;25.57;62.37
61674;BME280;47573;43.832;5.974;2022-10-16T22:23:35;96060.00;;;25.56;62.53
61674;BME280;47573;43.832;5.974;2022-10-16T22:28:38;96052.63;;;25.56;62.53
61674;BME280;47573;43.832;5.974;2022-10-16T22:33:39;96061.53;;;25.51;62.54
61674;BME280;47573;43.832;5.974;2022-10-16T22:38:40;96069.16;;;25.49;62.72
61674;BME280;47573;43.832;5.974;2022-10-16T22:43:44;96067.50;;;25.48;62.74
61674;BME280;47573;43.832;5.974;2022-10-16T22:48:44;96068.94;;;25.51;62.73
61674;BME280;47573;43.832;5.974;2022-10-16T22:53:45;96064.78;;;25.48;62.72
61674;BME280;47573;43.832;5.974;2022-10-16T22:58:48;96063.00;;;25.42;62.81
61674;BME280;47573;43.832;5.974;2022-10-16T23:03:48;96073.94;;;25.42;62.77
61674;BME280;47573;43.832;5.974;2022-10-16T23:08:50;96068.91;;;25.39;62.93
61674;BME280;47573;43.832;5.974;2022-10-16T23:13:52;96077.13;;;25.39;62.80
61674;BME280;47573;43.832;5.974;2022-10-16T23:18:53;96081.16;;;25.37;62.78
61674;BME280;47573;43.832;5.974;2022-10-16T23:23:53;96092.34;;;25.35;62.67
61674;BME280;47573;43.832;5.974;2022-10-16T23:28:56;96088.69;;;25.41;62.54
61674;BME280;47573;43.832;5.974;2022-10-16T23:33:58;96094.28;;;25.46;62.51
61674;BME280;47573;43.832;5.974;2022-10-16T23:38:58;96094.81;;;25.37;62.63
61674;BME280;47573;43.832;5.974;2022-10-16T23:44:00;96082.00;;;25.37;62.58
61674;BME280;47573;43.832;5.974;2022-10-16T23:49:01;96101.13;;;25.37;62.63
61674;BME280;47573;43.832;5.974;2022-10-16T23:54:01;96086.28;;;25.33;62.73
61674;BME280;47573;43.832;5.974;2022-10-16T23:59:03;96099.34;;;25.31;62.99
